sensor_id;sensor_type;location;lat;lon;timestamp;temperature;humidity
24638;DHT22;12773;50.162;8.548;2022-12-29T00:00:28;10.40;99.90
24638;DHT22;12773;50.162;8.548;2022-12-29T00:03:16;10.50;99.90
24638;DHT22;12773;50.162;8.548;2022-12-29T00:06:07;10.60;99.90
24638;DHT22;12773;50.162;8.548;2022-12-29T00:08:54;10.60;99.90
24638;DHT22;12773;50.162;8.548;2022-12-29T00:11:48;10.70;99.90
24638;DHT22;12773;50.162;8.548;2022-12-29T00:14:32;10.70;99.90
24638;DHT22;12773;50.162;8.548;2022-12-29T00:17:37;10.70;99.90
24638;DHT22;12773;50.162;8.548;2022-12-29T00:20:25;10.70;99.90
24638;DHT22;12773;50.162;8.548;2022-12-29T00:23:31;10.90;99.90
24638;DHT22;12773;50.162;8.548;2022-12-29T00:26:37;11.00;99.90
24638;DHT22;12773;50.162;8.548;2022-12-29T00:29:43;11.10;99.90
24638;DHT22;12773;50.162;8.548;2022-12-29T00:32:48;11.10;99.90
24638;DHT22;12773;50.162;8.548;2022-12-29T00:36:00;11.20;99.90
24638;DHT22;12773;50.162;8.548;2022-12-29T00:38:56;11.40;99.90
24638;DHT22;12773;50.162;8.548;2022-12-29T00:42:06;11.40;99.90
24638;DHT22;12773;50.162;8.548;2022-12-29T00:45:12;11.40;99.90
24638;DHT22;12773;50.162;8.548;2022-12-29T00:48:00;11.50;99.90
24638;DHT22;12773;50.162;8.548;2022-12-29T00:50:47;11.50;99.90
24638;DHT22;12773;50.162;8.548;2022-12-29T00:53:35;11.50;99.90
24638;DHT22;12773;50.162;8.548;2022-12-29T00:56:22;11.50;99.90
24638;DHT22;12773;50.162;8.548;2022-12-29T00:59:10;11.70;99.90
24638;DHT22;12773;50.162;8.548;2022-12-29T01:01:58;11.60;99.90
24638;DHT22;12773;50.162;8.548;2022-12-29T01:04:46;11.70;99.90
24638;DHT22;12773;50.162;8.548;2022-12-29T01:07:33;11.70;99.90
24638;DHT22;12773;50.162;8.548;2022-12-29T01:10:26;11.60;99.90
24638;DHT22;12773;50.162;8.548;2022-12-29T01:13:09;11.60;99.90
24638;DHT22;12773;50.162;8.548;2022-12-29T01:15:57;11.60;99.90
24638;DHT22;12773;50.162;8.548;2022-12-29T01:18:44;11.60;99.90
24638;DHT22;12773;50.162;8.548;2022-12-29T01:21:32;11.50;99.90
24638;DHT22;12773;50.162;8.548;2022-12-29T01:24:22;11.50;99.90
24638;DHT22;12773;50.162;8.548;2022-12-29T01:27:10;11.50;99.90
24638;DHT22;12773;50.162;8.548;2022-12-29T01:29:57;11.60;99.90
24638;DHT22;12773;50.162;8.548;2022-12-29T01:32:45;11.60;99.90
24638;DHT22;12773;50.162;8.548;2022-12-29T01:35:32;11.60;99.90
24638;DHT22;12773;50.162;8.548;2022-12-29T01:38:20;11.60;99.90
24638;DHT22;12773;50.162;8.548;2022-12-29T01:41:11;11.50;99.90
24638;DHT22;12773;50.162;8.548;2022-12-29T01:44:00;11.50;99.90
24638;DHT22;12773;50.162;8.548;2022-12-29T01:46:51;11.50;99.90
24638;DHT22;12773;50.162;8.548;2022-12-29T01:49:39;11.50;99.90
24638;DHT22;12773;50.162;8.548;2022-12-29T01:52:29;11.50;99.90
24638;DHT22;12773;50.162;8.548;2022-12-29T01:55:18;11.60;99.90
24638;DHT22;12773;50.162;8.548;2022-12-29T01:58:06;11.60;99.90
24638;DHT22;12773;50.162;8.548;2022-12-29T02:00:53;11.60;99.90
24638;DHT22;12773;50.162;8.548;2022-12-29T02:03:41;11.50;99.90
24638;DHT22;12773;50.162;8.548;2022-12-29T02:06:35;11.60;99.90
24638;DHT22;12773;50.162;8.548;2022-12-29T02:09:24;11.50;99.90
24638;DHT22;12773;50.162;8.548;2022-12-29T02:12:12;11.50;99.90
24638;DHT22;12773;50.162;8.548;2022-12-29T02:15:02;11.60;99.90
24638;DHT22;12773;50.162;8.548;2022-12-29T02:18:02;11.50;99.90
24638;DHT22;12773;50.162;8.548;2022-12-29T02:40:06;11.40;99.90
24638;DHT22;12773;50.162;8.548;2022-12-29T02:43:25;11.50;99.90
24638;DHT22;12773;50.162;8.548;2022-12-29T02:49:19;11.40;99.90
24638;DHT22;12773;50.162;8.548;2022-12-29T02:52:14;11.50;99.90
24638;DHT22;12773;50.162;8.548;2022-12-29T02:54:57;11.50;99.90
24638;DHT22;12773;50.162;8.548;2022-12-29T02:57:45;11.50;99.90
24638;DHT22;12773;50.162;8.548;2022-12-29T03:00:32;11.60;99.90
24638;DHT22;12773;50.162;8.548;2022-12-29T03:09:44;11.60;99.90
24638;DHT22;12773;50.162;8.548;2022-12-29T03:16:01;11.60;99.90
24638;DHT22;12773;50.162;8.548;2022-12-29T03:19:08;11.60;99.90
24638;DHT22;12773;50.162;8.548;2022-12-29T03:22:04;11.60;99.90
24638;DHT22;12773;50.162;8.548;2022-12-29T03:28:07;11.60;99.90
24638;DHT22;12773;50.162;8.548;2022-12-29T03:30:56;11.60;99.90
24638;DHT22;12773;50.162;8.548;2022-12-29T03:33:47;11.60;99.90
24638;DHT22;12773;50.162;8.548;2022-12-29T03:36:39;11.60;99.90
24638;DHT22;12773;50.162;8.548;2022-12-29T03:39:25;11.60;99.90
24638;DHT22;12773;50.162;8.548;2022-12-29T03:42:24;11.60;99.90
24638;DHT22;12773;50.162;8.548;2022-12-29T03:45:11;11.60;99.90
24638;DHT22;12773;50.162;8.548;2022-12-29T03:47:59;11.60;99.90
24638;DHT22;12773;50.162;8.548;2022-12-29T03:50:46;11.70;99.90
24638;DHT22;12773;50.162;8.548;2022-12-29T03:53:33;11.80;99.90
24638;DHT22;12773;50.162;8.548;2022-12-29T03:56:24;11.80;99.90
24638;DHT22;12773;50.162;8.548;2022-12-29T03:59:11;11.70;99.90
24638;DHT22;12773;50.162;8.548;2022-12-29T04:01:59;11.70;99.90
24638;DHT22;12773;50.162;8.548;2022-12-29T04:04:47;11.70;99.90
24638;DHT22;12773;50.162;8.548;2022-12-29T04:07:34;11.70;99.90
24638;DHT22;12773;50.162;8.548;2022-12-29T04:10:25;11.70;99.90
24638;DHT22;12773;50.162;8.548;2022-12-29T04:13:12;11.70;99.90
24638;DHT22;12773;50.162;8.548;2022-12-29T04:16:08;11.80;99.90
24638;DHT22;12773;50.162;8.548;2022-12-29T04:18:49;11.80;99.90
24638;DHT22;12773;50.162;8.548;2022-12-29T04:21:37;11.80;99.90
24638;DHT22;12773;50.162;8.548;2022-12-29T04:24:25;11.90;99.90
24638;DHT22;12773;50.162;8.548;2022-12-29T04:27:12;11.80;99.90
24638;DHT22;12773;50.162;8.548;2022-12-29T04:29:59;11.90;99.90
24638;DHT22;12773;50.162;8.548;2022-12-29T04:32:47;11.90;99.90
24638;DHT22;12773;50.162;8.548;2022-12-29T04:35:34;11.70;99.90
24638;DHT22;12773;50.162;8.548;2022-12-29T04:38:23;11.80;99.90
24638;DHT22;12773;50.162;8.548;2022-12-29T04:41:13;11.80;99.90
24638;DHT22;12773;50.162;8.548;2022-12-29T04:44:01;11.70;99.90
24638;DHT22;12773;50.162;8.548;2022-12-29T04:46:48;11.80;99.90
24638;DHT22;12773;50.162;8.548;2022-12-29T04:49:35;11.80;99.90
24638;DHT22;12773;50.162;8.548;2022-12-29T04:52:23;11.70;99.90
24638;DHT22;12773;50.162;8.548;2022-12-29T04:55:11;11.70;99.90
24638;DHT22;12773;50.162;8.548;2022-12-29T04:57:58;11.70;99.90
24638;DHT22;12773;50.162;8.548;2022-12-29T05:00:45;11.70;99.90
24638;DHT22;12773;50.162;8.548;2022-12-29T05:03:33;11.70;99.90
24638;DHT22;12773;50.162;8.548;2022-12-29T05:06:20;11.90;99.90
24638;DHT22;12773;50.162;8.548;2022-12-29T05:09:11;11.90;99.90
24638;DHT22;12773;50.162;8.548;2022-12-29T05:11:59;11.90;99.90
24638;DHT22;12773;50.162;8.548;2022-12-29T05:14:46;11.90;99.90
24638;DHT22;12773;50.162;8.548;2022-12-29T05:17:34;11.90;99.90
24638;DHT22;12773;50.162;8.548;2022-12-29T05:20:27;12.00;99.90
24638;DHT22;12773;50.162;8.548;2022-12-29T05:23:10;11.90;99.90
24638;DHT22;12773;50.162;8.548;2022-12-29T05:25:58;11.80;99.90
24638;DHT22;12773;50.162;8.548;2022-12-29T05:28:45;11.80;99.90
24638;DHT22;12773;50.162;8.548;2022-12-29T05:31:33;11.90;99.90
24638;DHT22;12773;50.162;8.548;2022-12-29T05:34:22;11.90;99.90
24638;DHT22;12773;50.162;8.548;2022-12-29T05:37:10;11.80;99.90
24638;DHT22;12773;50.162;8.548;2022-12-29T05:39:57;11.50;99.90
24638;DHT22;12773;50.162;8.548;2022-12-29T05:42:45;11.50;99.90
24638;DHT22;12773;50.162;8.548;2022-12-29T05:45:32;11.40;99.90
24638;DHT22;12773;50.162;8.548;2022-12-29T05:48:19;11.50;99.90
24638;DHT22;12773;50.162;8.548;2022-12-29T05:51:08;11.50;99.90
24638;DHT22;12773;50.162;8.548;2022-12-29T05:53:55;11.50;99.90
24638;DHT22;12773;50.162;8.548;2022-12-29T05:56:42;11.50;99.90
24638;DHT22;12773;50.162;8.548;2022-12-29T05:59:29;11.40;99.90
24638;DHT22;12773;50.162;8.548;2022-12-29T06:02:17;11.50;99.90
24638;DHT22;12773;50.162;8.548;2022-12-29T06:05:05;11.60;99.90
24638;DHT22;12773;50.162;8.548;2022-12-29T06:07:52;11.60;99.90
24638;DHT22;12773;50.162;8.548;2022-12-29T06:10:40;11.60;99.90
24638;DHT22;12773;50.162;8.548;2022-12-29T06:13:27;11.70;99.90
24638;DHT22;12773;50.162;8.548;2022-12-29T06:16:15;11.80;99.90
24638;DHT22;12773;50.162;8.548;2022-12-29T06:19:02;11.80;99.90
24638;DHT22;12773;50.162;8.548;2022-12-29T06:21:50;11.80;99.90
24638;DHT22;12773;50.162;8.548;2022-12-29T06:24:39;11.80;99.90
24638;DHT22;12773;50.162;8.548;2022-12-29T06:27:26;11.80;99.90
24638;DHT22;12773;50.162;8.548;2022-12-29T06:30:14;11.80;99.90
24638;DHT22;12773;50.162;8.548;2022-12-29T06:33:02;11.80;99.90
24638;DHT22;12773;50.162;8.548;2022-12-29T06:35:50;11.80;99.90
24638;DHT22;12773;50.162;8.548;2022-12-29T06:38:39;11.80;99.90
24638;DHT22;12773;50.162;8.548;2022-12-29T06:41:26;11.70;99.90
24638;DHT22;12773;50.162;8.548;2022-12-29T06:44:15;11.60;99.90
24638;DHT22;12773;50.162;8.548;2022-12-29T06:47:02;11.60;99.90
24638;DHT22;12773;50.162;8.548;2022-12-29T06:49:50;11.70;99.90
24638;DHT22;12773;50.162;8.548;2022-12-29T06:52:40;11.70;99.90
24638;DHT22;12773;50.162;8.548;2022-12-29T06:55:28;11.70;99.90
24638;DHT22;12773;50.162;8.548;2022-12-29T06:58:15;11.50;99.90
24638;DHT22;12773;50.162;8.548;2022-12-29T07:01:03;11.40;99.90
24638;DHT22;12773;50.162;8.548;2022-12-29T07:03:50;11.50;99.90
24638;DHT22;12773;50.162;8.548;2022-12-29T07:06:39;11.40;99.90
24638;DHT22;12773;50.162;8.548;2022-12-29T07:09:27;11.40;99.90
24638;DHT22;12773;50.162;8.548;2022-12-29T07:12:14;11.50;99.90
24638;DHT22;12773;50.162;8.548;2022-12-29T07:15:02;11.50;99.90
24638;DHT22;12773;50.162;8.548;2022-12-29T07:17:49;11.60;99.90
24638;DHT22;12773;50.162;8.548;2022-12-29T07:20:38;11.70;99.90
24638;DHT22;12773;50.162;8.548;2022-12-29T07:23:25;11.70;99.90
24638;DHT22;12773;50.162;8.548;2022-12-29T07:26:14;11.60;99.90
24638;DHT22;12773;50.162;8.548;2022-12-29T07:29:04;11.60;99.90
24638;DHT22;12773;50.162;8.548;2022-12-29T07:31:53;11.70;99.90
24638;DHT22;12773;50.162;8.548;2022-12-29T07:34:41;11.60;99.90
24638;DHT22;12773;50.162;8.548;2022-12-29T07:37:28;11.50;99.90
24638;DHT22;12773;50.162;8.548;2022-12-29T07:40:16;11.60;99.90
24638;DHT22;12773;50.162;8.548;2022-12-29T07:43:03;11.60;99.90
24638;DHT22;12773;50.162;8.548;2022-12-29T07:45:56;11.60;99.90
24638;DHT22;12773;50.162;8.548;2022-12-29T07:48:40;11.70;99.90
24638;DHT22;12773;50.162;8.548;2022-12-29T07:51:27;11.70;99.90
24638;DHT22;12773;50.162;8.548;2022-12-29T07:54:14;11.70;99.90
24638;DHT22;12773;50.162;8.548;2022-12-29T07:57:05;11.70;99.90
24638;DHT22;12773;50.162;8.548;2022-12-29T07:59:52;11.70;99.90
24638;DHT22;12773;50.162;8.548;2022-12-29T08:02:40;11.70;99.90
24638;DHT22;12773;50.162;8.548;2022-12-29T08:05:27;11.70;99.90
24638;DHT22;12773;50.162;8.548;2022-12-29T08:08:15;11.80;99.90
24638;DHT22;12773;50.162;8.548;2022-12-29T08:11:02;11.80;99.90
24638;DHT22;12773;50.162;8.548;2022-12-29T08:13:53;11.90;99.90
24638;DHT22;12773;50.162;8.548;2022-12-29T08:16:40;12.00;99.90
24638;DHT22;12773;50.162;8.548;2022-12-29T08:19:29;11.90;99.90
24638;DHT22;12773;50.162;8.548;2022-12-29T08:22:16;12.00;99.90
24638;DHT22;12773;50.162;8.548;2022-12-29T08:25:03;12.00;99.90
24638;DHT22;12773;50.162;8.548;2022-12-29T08:27:53;12.10;99.90
24638;DHT22;12773;50.162;8.548;2022-12-29T08:30:41;12.00;99.90
24638;DHT22;12773;50.162;8.548;2022-12-29T08:33:29;12.00;99.90
24638;DHT22;12773;50.162;8.548;2022-12-29T08:36:16;12.00;99.90
24638;DHT22;12773;50.162;8.548;2022-12-29T08:39:04;12.10;99.90
24638;DHT22;12773;50.162;8.548;2022-12-29T08:41:53;12.10;99.90
24638;DHT22;12773;50.162;8.548;2022-12-29T08:44:41;12.10;99.90
24638;DHT22;12773;50.162;8.548;2022-12-29T08:47:28;12.10;99.90
24638;DHT22;12773;50.162;8.548;2022-12-29T08:50:16;12.10;99.90
24638;DHT22;12773;50.162;8.548;2022-12-29T08:53:03;12.10;99.90
24638;DHT22;12773;50.162;8.548;2022-12-29T08:55:56;12.20;99.90
24638;DHT22;12773;50.162;8.548;2022-12-29T08:58:46;12.40;99.90
24638;DHT22;12773;50.162;8.548;2022-12-29T09:01:33;12.40;99.90
24638;DHT22;12773;50.162;8.548;2022-12-29T09:04:22;12.30;99.90
24638;DHT22;12773;50.162;8.548;2022-12-29T09:07:09;12.20;99.90
24638;DHT22;12773;50.162;8.548;2022-12-29T09:09:57;12.20;99.90
24638;DHT22;12773;50.162;8.548;2022-12-29T09:12:44;12.20;99.90
24638;DHT22;12773;50.162;8.548;2022-12-29T09:15:31;12.20;99.90
24638;DHT22;12773;50.162;8.548;2022-12-29T09:18:19;12.10;99.90
24638;DHT22;12773;50.162;8.548;2022-12-29T09:21:09;12.00;99.90
24638;DHT22;12773;50.162;8.548;2022-12-29T09:23:56;12.00;99.90
24638;DHT22;12773;50.162;8.548;2022-12-29T09:26:44;11.80;99.90
24638;DHT22;12773;50.162;8.548;2022-12-29T09:29:32;12.00;99.90
24638;DHT22;12773;50.162;8.548;2022-12-29T09:32:19;12.20;99.90
24638;DHT22;12773;50.162;8.548;2022-12-29T09:35:09;12.20;99.90
24638;DHT22;12773;50.162;8.548;2022-12-29T09:37:56;12.20;99.90
24638;DHT22;12773;50.162;8.548;2022-12-29T09:40:46;12.10;99.90
24638;DHT22;12773;50.162;8.548;2022-12-29T09:46:49;12.00;99.90
24638;DHT22;12773;50.162;8.548;2022-12-29T09:49:43;11.90;99.90
24638;DHT22;12773;50.162;8.548;2022-12-29T09:52:42;11.90;99.90
24638;DHT22;12773;50.162;8.548;2022-12-29T09:55:48;12.00;99.90
24638;DHT22;12773;50.162;8.548;2022-12-29T10:02:42;11.90;99.90
24638;DHT22;12773;50.162;8.548;2022-12-29T10:04:42;11.90;99.90
24638;DHT22;12773;50.162;8.548;2022-12-29T10:07:52;11.80;99.90
24638;DHT22;12773;50.162;8.548;2022-12-29T10:23:21;11.90;99.90
24638;DHT22;12773;50.162;8.548;2022-12-29T10:26:19;11.80;99.90
24638;DHT22;12773;50.162;8.548;2022-12-29T10:29:04;11.80;99.90
24638;DHT22;12773;50.162;8.548;2022-12-29T10:31:58;11.70;99.90
24638;DHT22;12773;50.162;8.548;2022-12-29T10:35:20;11.80;99.90
24638;DHT22;12773;50.162;8.548;2022-12-29T10:38:17;11.80;99.90
24638;DHT22;12773;50.162;8.548;2022-12-29T10:41:25;11.90;99.90
24638;DHT22;12773;50.162;8.548;2022-12-29T10:44:15;11.80;99.90
24638;DHT22;12773;50.162;8.548;2022-12-29T10:47:08;11.80;99.90
24638;DHT22;12773;50.162;8.548;2022-12-29T10:49:55;11.70;99.90
24638;DHT22;12773;50.162;8.548;2022-12-29T10:52:44;11.70;99.90
24638;DHT22;12773;50.162;8.548;2022-12-29T10:55:35;11.90;99.90
24638;DHT22;12773;50.162;8.548;2022-12-29T10:58:24;11.90;99.90
24638;DHT22;12773;50.162;8.548;2022-12-29T11:01:13;12.00;99.90
24638;DHT22;12773;50.162;8.548;2022-12-29T11:04:04;12.00;99.90
24638;DHT22;12773;50.162;8.548;2022-12-29T11:06:52;12.10;99.90
24638;DHT22;12773;50.162;8.548;2022-12-29T11:09:41;12.30;99.90
24638;DHT22;12773;50.162;8.548;2022-12-29T11:12:30;12.40;99.90
24638;DHT22;12773;50.162;8.548;2022-12-29T11:15:17;12.40;99.90
24638;DHT22;12773;50.162;8.548;2022-12-29T11:18:06;12.60;99.90
24638;DHT22;12773;50.162;8.548;2022-12-29T11:20:56;13.10;99.90
24638;DHT22;12773;50.162;8.548;2022-12-29T11:23:48;13.40;99.90
24638;DHT22;12773;50.162;8.548;2022-12-29T11:26:35;13.70;99.90
24638;DHT22;12773;50.162;8.548;2022-12-29T11:29:42;13.80;99.90
24638;DHT22;12773;50.162;8.548;2022-12-29T11:32:28;13.70;99.90
24638;DHT22;12773;50.162;8.548;2022-12-29T11:35:38;13.60;99.90
24638;DHT22;12773;50.162;8.548;2022-12-29T11:38:25;13.50;99.90
24638;DHT22;12773;50.162;8.548;2022-12-29T11:41:13;13.60;99.90
24638;DHT22;12773;50.162;8.548;2022-12-29T11:44:02;13.50;99.90
24638;DHT22;12773;50.162;8.548;2022-12-29T11:46:52;13.30;99.90
24638;DHT22;12773;50.162;8.548;2022-12-29T11:49:39;13.20;99.90
24638;DHT22;12773;50.162;8.548;2022-12-29T11:52:30;13.20;99.90
24638;DHT22;12773;50.162;8.548;2022-12-29T11:55:21;13.40;99.90
24638;DHT22;12773;50.162;8.548;2022-12-29T11:58:11;13.40;99.90
24638;DHT22;12773;50.162;8.548;2022-12-29T12:01:11;13.50;99.90
24638;DHT22;12773;50.162;8.548;2022-12-29T12:04:06;13.50;99.90
24638;DHT22;12773;50.162;8.548;2022-12-29T12:07:17;13.50;99.90
24638;DHT22;12773;50.162;8.548;2022-12-29T12:10:04;13.80;99.90
24638;DHT22;12773;50.162;8.548;2022-12-29T12:15:52;14.10;99.90
24638;DHT22;12773;50.162;8.548;2022-12-29T12:18:57;14.00;99.90
24638;DHT22;12773;50.162;8.548;2022-12-29T12:21:47;14.00;99.90
24638;DHT22;12773;50.162;8.548;2022-12-29T12:24:42;13.90;99.90
24638;DHT22;12773;50.162;8.548;2022-12-29T12:28:05;13.90;99.90
24638;DHT22;12773;50.162;8.548;2022-12-29T12:30:49;13.80;99.90
24638;DHT22;12773;50.162;8.548;2022-12-29T12:33:41;13.60;99.90
24638;DHT22;12773;50.162;8.548;2022-12-29T12:43:34;13.40;99.90
24638;DHT22;12773;50.162;8.548;2022-12-29T12:46:39;13.50;99.90
24638;DHT22;12773;50.162;8.548;2022-12-29T12:49:38;13.70;99.90
24638;DHT22;12773;50.162;8.548;2022-12-29T13:02:24;13.40;99.90
24638;DHT22;12773;50.162;8.548;2022-12-29T13:14:49;12.90;99.90
24638;DHT22;12773;50.162;8.548;2022-12-29T13:17:58;13.10;99.90
24638;DHT22;12773;50.162;8.548;2022-12-29T13:23:54;13.00;99.90
24638;DHT22;12773;50.162;8.548;2022-12-29T13:30:00;12.80;99.90
24638;DHT22;12773;50.162;8.548;2022-12-29T13:36:05;13.20;99.90
24638;DHT22;12773;50.162;8.548;2022-12-29T13:39:02;13.40;99.90
24638;DHT22;12773;50.162;8.548;2022-12-29T13:41:55;13.50;99.90
24638;DHT22;12773;50.162;8.548;2022-12-29T13:44:54;13.40;99.90
24638;DHT22;12773;50.162;8.548;2022-12-29T13:47:48;13.30;99.90
24638;DHT22;12773;50.162;8.548;2022-12-29T13:50:38;13.30;99.90
24638;DHT22;12773;50.162;8.548;2022-12-29T13:53:35;13.30;99.90
24638;DHT22;12773;50.162;8.548;2022-12-29T13:59:19;13.20;99.90
24638;DHT22;12773;50.162;8.548;2022-12-29T14:08:17;13.00;99.90
24638;DHT22;12773;50.162;8.548;2022-12-29T14:11:10;13.00;99.90
24638;DHT22;12773;50.162;8.548;2022-12-29T14:13:59;12.90;99.90
24638;DHT22;12773;50.162;8.548;2022-12-29T14:16:46;13.00;99.90
24638;DHT22;12773;50.162;8.548;2022-12-29T14:19:36;13.00;99.90
24638;DHT22;12773;50.162;8.548;2022-12-29T14:24:59;13.10;99.90
24638;DHT22;12773;50.162;8.548;2022-12-29T14:27:53;12.90;99.90
24638;DHT22;12773;50.162;8.548;2022-12-29T14:30:53;12.90;99.90
24638;DHT22;12773;50.162;8.548;2022-12-29T14:37:00;12.70;99.90
24638;DHT22;12773;50.162;8.548;2022-12-29T14:39:48;12.70;99.90
24638;DHT22;12773;50.162;8.548;2022-12-29T14:42:37;12.70;99.90
24638;DHT22;12773;50.162;8.548;2022-12-29T14:45:30;12.80;99.90
24638;DHT22;12773;50.162;8.548;2022-12-29T14:51:21;12.80;99.90
24638;DHT22;12773;50.162;8.548;2022-12-29T14:57:42;12.70;99.90
24638;DHT22;12773;50.162;8.548;2022-12-29T15:00:34;12.60;99.90
24638;DHT22;12773;50.162;8.548;2022-12-29T15:03:45;12.50;99.90
24638;DHT22;12773;50.162;8.548;2022-12-29T15:06:24;12.50;99.90
24638;DHT22;12773;50.162;8.548;2022-12-29T15:09:25;12.50;99.90
24638;DHT22;12773;50.162;8.548;2022-12-29T15:15:26;12.30;99.90
24638;DHT22;12773;50.162;8.548;2022-12-29T15:18:32;12.40;99.90
24638;DHT22;12773;50.162;8.548;2022-12-29T15:21:25;12.30;99.90
24638;DHT22;12773;50.162;8.548;2022-12-29T15:24:13;12.30;99.90
24638;DHT22;12773;50.162;8.548;2022-12-29T15:27:03;12.30;99.90
24638;DHT22;12773;50.162;8.548;2022-12-29T15:29:59;12.30;99.90
24638;DHT22;12773;50.162;8.548;2022-12-29T15:32:50;12.20;99.90
24638;DHT22;12773;50.162;8.548;2022-12-29T15:35:39;12.20;99.90
24638;DHT22;12773;50.162;8.548;2022-12-29T15:38:28;12.00;99.90
24638;DHT22;12773;50.162;8.548;2022-12-29T15:41:32;11.90;99.90
24638;DHT22;12773;50.162;8.548;2022-12-29T15:44:32;11.80;99.90
24638;DHT22;12773;50.162;8.548;2022-12-29T15:47:17;11.70;99.90
24638;DHT22;12773;50.162;8.548;2022-12-29T15:52:56;11.70;99.90
24638;DHT22;12773;50.162;8.548;2022-12-29T15:55:45;11.60;99.90
24638;DHT22;12773;50.162;8.548;2022-12-29T15:58:43;11.60;99.90
24638;DHT22;12773;50.162;8.548;2022-12-29T16:01:40;11.60;99.90
24638;DHT22;12773;50.162;8.548;2022-12-29T16:04:31;11.60;99.90
24638;DHT22;12773;50.162;8.548;2022-12-29T16:10:26;11.40;99.90
24638;DHT22;12773;50.162;8.548;2022-12-29T16:13:38;11.40;99.90
24638;DHT22;12773;50.162;8.548;2022-12-29T16:16:31;11.40;99.90
24638;DHT22;12773;50.162;8.548;2022-12-29T16:19:22;11.30;99.90
24638;DHT22;12773;50.162;8.548;2022-12-29T16:22:19;11.40;99.90
24638;DHT22;12773;50.162;8.548;2022-12-29T16:25:24;11.30;99.90
24638;DHT22;12773;50.162;8.548;2022-12-29T16:28:20;11.30;99.90
24638;DHT22;12773;50.162;8.548;2022-12-29T16:31:32;11.40;99.90
24638;DHT22;12773;50.162;8.548;2022-12-29T16:34:25;11.30;99.90
24638;DHT22;12773;50.162;8.548;2022-12-29T16:37:33;11.30;99.90
24638;DHT22;12773;50.162;8.548;2022-12-29T16:40:26;11.20;99.90
24638;DHT22;12773;50.162;8.548;2022-12-29T16:43:30;11.30;99.90
24638;DHT22;12773;50.162;8.548;2022-12-29T16:46:28;11.30;99.90
24638;DHT22;12773;50.162;8.548;2022-12-29T16:49:17;11.40;99.90
24638;DHT22;12773;50.162;8.548;2022-12-29T16:52:27;11.30;99.90
24638;DHT22;12773;50.162;8.548;2022-12-29T16:55:16;11.30;99.90
24638;DHT22;12773;50.162;8.548;2022-12-29T16:58:11;11.30;99.90
24638;DHT22;12773;50.162;8.548;2022-12-29T17:01:02;11.30;99.90
24638;DHT22;12773;50.162;8.548;2022-12-29T17:03:56;11.40;99.90
24638;DHT22;12773;50.162;8.548;2022-12-29T17:06:43;11.40;99.90
24638;DHT22;12773;50.162;8.548;2022-12-29T17:09:30;11.40;99.90
24638;DHT22;12773;50.162;8.548;2022-12-29T17:12:21;11.50;99.90
24638;DHT22;12773;50.162;8.548;2022-12-29T17:15:26;11.40;99.90
24638;DHT22;12773;50.162;8.548;2022-12-29T17:18:16;11.30;99.90
24638;DHT22;12773;50.162;8.548;2022-12-29T17:21:03;11.20;99.90
24638;DHT22;12773;50.162;8.548;2022-12-29T17:23:50;11.20;99.90
24638;DHT22;12773;50.162;8.548;2022-12-29T17:26:40;11.10;99.90
24638;DHT22;12773;50.162;8.548;2022-12-29T17:29:35;11.20;99.90
24638;DHT22;12773;50.162;8.548;2022-12-29T17:32:22;11.20;99.90
24638;DHT22;12773;50.162;8.548;2022-12-29T17:35:21;11.20;99.90
24638;DHT22;12773;50.162;8.548;2022-12-29T17:41:33;11.00;99.90
24638;DHT22;12773;50.162;8.548;2022-12-29T17:44:18;11.00;99.90
24638;DHT22;12773;50.162;8.548;2022-12-29T17:47:10;10.90;99.90
24638;DHT22;12773;50.162;8.548;2022-12-29T17:49:58;10.90;99.90
24638;DHT22;12773;50.162;8.548;2022-12-29T17:52:55;10.90;99.90
24638;DHT22;12773;50.162;8.548;2022-12-29T17:55:43;10.80;99.90
24638;DHT22;12773;50.162;8.548;2022-12-29T17:58:32;10.80;99.90
24638;DHT22;12773;50.162;8.548;2022-12-29T18:01:19;10.80;99.90
24638;DHT22;12773;50.162;8.548;2022-12-29T18:04:14;10.80;99.90
24638;DHT22;12773;50.162;8.548;2022-12-29T18:07:07;10.70;99.90
24638;DHT22;12773;50.162;8.548;2022-12-29T18:09:52;10.70;99.90
24638;DHT22;12773;50.162;8.548;2022-12-29T18:12:48;10.70;99.90
24638;DHT22;12773;50.162;8.548;2022-12-29T18:15:36;10.70;99.90
24638;DHT22;12773;50.162;8.548;2022-12-29T18:18:25;10.80;99.90
24638;DHT22;12773;50.162;8.548;2022-12-29T18:21:18;10.80;99.90
24638;DHT22;12773;50.162;8.548;2022-12-29T18:24:12;10.80;99.90
24638;DHT22;12773;50.162;8.548;2022-12-29T18:26:59;10.80;99.90
24638;DHT22;12773;50.162;8.548;2022-12-29T18:29:48;10.90;99.90
24638;DHT22;12773;50.162;8.548;2022-12-29T18:32:35;11.00;99.90
24638;DHT22;12773;50.162;8.548;2022-12-29T18:35:29;10.90;99.90
24638;DHT22;12773;50.162;8.548;2022-12-29T18:38:16;10.90;99.90
24638;DHT22;12773;50.162;8.548;2022-12-29T18:41:04;10.90;99.90
24638;DHT22;12773;50.162;8.548;2022-12-29T18:43:56;10.90;99.90
24638;DHT22;12773;50.162;8.548;2022-12-29T18:46:52;10.90;99.90
24638;DHT22;12773;50.162;8.548;2022-12-29T18:49:40;10.90;99.90
24638;DHT22;12773;50.162;8.548;2022-12-29T18:52:27;10.90;99.90
24638;DHT22;12773;50.162;8.548;2022-12-29T18:55:21;10.80;99.90
24638;DHT22;12773;50.162;8.548;2022-12-29T18:58:08;10.70;99.90
24638;DHT22;12773;50.162;8.548;2022-12-29T19:00:56;10.70;99.90
24638;DHT22;12773;50.162;8.548;2022-12-29T19:03:43;10.70;99.90
24638;DHT22;12773;50.162;8.548;2022-12-29T19:06:30;10.70;99.90
24638;DHT22;12773;50.162;8.548;2022-12-29T19:09:18;10.60;99.90
24638;DHT22;12773;50.162;8.548;2022-12-29T19:12:07;10.60;99.90
24638;DHT22;12773;50.162;8.548;2022-12-29T19:14:55;10.50;99.90
24638;DHT22;12773;50.162;8.548;2022-12-29T19:17:46;10.50;99.90
24638;DHT22;12773;50.162;8.548;2022-12-29T19:20:38;10.60;99.90
24638;DHT22;12773;50.162;8.548;2022-12-29T19:23:26;10.60;99.90
24638;DHT22;12773;50.162;8.548;2022-12-29T19:26:28;10.60;99.90
24638;DHT22;12773;50.162;8.548;2022-12-29T19:29:16;10.70;99.90
24638;DHT22;12773;50.162;8.548;2022-12-29T19:32:03;10.60;99.90
24638;DHT22;12773;50.162;8.548;2022-12-29T19:34:54;10.60;99.90
24638;DHT22;12773;50.162;8.548;2022-12-29T19:37:43;10.60;99.90
24638;DHT22;12773;50.162;8.548;2022-12-29T19:40:30;10.50;99.90
24638;DHT22;12773;50.162;8.548;2022-12-29T19:43:18;10.50;99.90
24638;DHT22;12773;50.162;8.548;2022-12-29T19:46:12;10.50;99.90
24638;DHT22;12773;50.162;8.548;2022-12-29T19:49:00;10.50;99.90
24638;DHT22;12773;50.162;8.548;2022-12-29T19:51:47;10.50;99.90
24638;DHT22;12773;50.162;8.548;2022-12-29T19:54:34;10.50;99.90
24638;DHT22;12773;50.162;8.548;2022-12-29T19:57:25;10.60;99.90
24638;DHT22;12773;50.162;8.548;2022-12-29T20:00:13;10.70;99.90
24638;DHT22;12773;50.162;8.548;2022-12-29T20:03:00;10.70;99.90
24638;DHT22;12773;50.162;8.548;2022-12-29T20:05:48;10.70;99.90